Time;durP1;ratioP1;P1;durP2;ratioP2;P2;SDS_P1;SDS_P2;PMS_P1;PMS_P2;Temp;Humidity;BMP_temperature;BMP_pressure;BME280_temperature;BME280_humidity;BME280_pressure;Samples;Min_cycle;Max_cycle;Signal;HPM_P1;HPM_P2
2023/09/03 00:00:52;;;;;;;697.53;635.30;;;13.10;82.00;;;;;;4991290;28;20077;-62
2023/09/03 00:03:17;;;;;;;671.25;615.40;;;13.00;82.00;;;;;;4989539;28;20042;-62
2023/09/03 00:05:56;;;;;;;714.50;649.67;;;13.00;82.10;;;;;;4990568;28;20116;-62
2023/09/03 00:08:23;;;;;;;609.88;558.70;;;12.90;81.80;;;;;;4974005;28;20043;-62
2023/09/03 00:10:53;;;;;;;694.65;634.25;;;12.90;81.80;;;;;;4990892;28;20057;-62
2023/09/03 00:13:19;;;;;;;655.13;602.58;;;12.80;81.80;;;;;;4971826;28;20054;-62
2023/09/03 00:15:45;;;;;;;691.97;633.20;;;12.80;82.30;;;;;;4990526;28;20042;-62
2023/09/03 00:18:12;;;;;;;685.67;629.00;;;12.90;82.70;;;;;;4956406;28;20482;-62
2023/09/03 00:20:57;;;;;;;650.55;598.08;;;12.90;83.20;;;;;;4990309;28;20053;-62
2023/09/03 00:23:22;;;;;;;663.05;605.03;;;12.80;83.20;;;;;;4989064;28;20046;-62
2023/09/03 00:25:48;;;;;;;680.90;621.20;;;12.80;83.10;;;;;;4973014;28;20042;-62
2023/09/03 00:28:14;;;;;;;649.95;591.70;;;12.80;83.00;;;;;;4973129;28;20410;-62
2023/09/03 00:30:39;;;;;;;666.17;607.65;;;12.70;83.10;;;;;;4989778;28;20045;-62
2023/09/03 00:33:05;;;;;;;685.63;627.08;;;12.70;83.60;;;;;;4988086;28;20459;-62
2023/09/03 00:35:31;;;;;;;630.00;578.33;;;12.70;83.70;;;;;;4989405;28;20057;-62
2023/09/03 00:37:56;;;;;;;653.80;597.95;;;12.70;83.90;;;;;;4972882;28;20391;-62
2023/09/03 00:40:22;;;;;;;635.55;584.67;;;12.70;83.90;;;;;;4989993;28;20040;-62
2023/09/03 00:42:48;;;;;;;655.80;601.15;;;12.70;83.90;;;;;;4989022;28;20042;-62
2023/09/03 00:45:13;;;;;;;677.08;617.63;;;12.70;83.80;;;;;;4972686;28;20065;-62
2023/09/03 00:47:39;;;;;;;617.53;566.80;;;12.70;83.90;;;;;;4955455;28;20044;-62
2023/09/03 00:50:06;;;;;;;661.63;602.20;;;12.70;83.40;;;;;;4989222;28;20042;-62
2023/09/03 00:52:31;;;;;;;617.78;567.78;;;12.70;83.30;;;;;;4971633;28;20034;-62
2023/09/03 00:54:57;;;;;;;608.50;559.83;;;12.70;83.40;;;;;;4990056;28;20054;-62
2023/09/03 00:57:23;;;;;;;665.00;607.83;;;12.70;83.50;;;;;;4972850;28;20491;-62
2023/09/03 00:59:51;;;;;;;691.72;632.22;;;12.70;83.70;;;;;;4978447;28;20072;-62
2023/09/03 01:02:19;;;;;;;638.85;584.75;;;12.70;83.50;;;;;;4991282;28;20497;-62
2023/09/03 01:04:45;;;;;;;635.75;580.67;;;12.80;83.60;;;;;;4988756;28;20121;-62
2023/09/03 01:07:12;;;;;;;651.38;596.65;;;12.80;83.80;;;;;;4973197;28;20076;-62
2023/09/03 01:09:39;;;;;;;668.97;611.53;;;12.80;83.80;;;;;;4989468;28;20500;-62
2023/09/03 01:12:19;;;;;;;648.83;595.72;;;12.80;83.60;;;;;;4988181;28;20548;-62
2023/09/03 01:14:58;;;;;;;643.38;588.78;;;12.80;83.40;;;;;;4989423;28;20074;-62
2023/09/03 01:17:45;;;;;;;650.08;592.25;;;12.80;83.60;;;;;;4974589;28;20042;-62
2023/09/03 01:20:58;;;;;;;667.38;611.90;;;12.90;83.80;;;;;;4989397;28;20076;-62
2023/09/03 01:23:58;;;;;;;585.45;538.85;;;12.80;83.70;;;;;;4927743;28;20107;-62
2023/09/03 01:26:42;;;;;;;613.70;562.00;;;12.80;83.70;;;;;;4976732;28;20336;-62
2023/09/03 01:29:10;;;;;;;636.33;582.70;;;12.80;83.60;;;;;;4987231;28;20100;-62
2023/09/03 01:31:36;;;;;;;665.78;609.05;;;12.90;83.60;;;;;;4988569;28;20057;-61
2023/09/03 01:34:03;;;;;;;605.47;557.30;;;12.80;83.70;;;;;;4987757;28;20044;-62
2023/09/03 01:36:34;;;;;;;622.60;572.10;;;12.90;83.80;;;;;;4973726;28;20499;-61
2023/09/03 01:39:03;;;;;;;636.20;581.20;;;12.90;83.60;;;;;;4986943;28;20157;-62
2023/09/03 01:41:38;;;;;;;666.30;611.92;;;12.80;83.60;;;;;;4971380;28;20042;-62
2023/09/03 01:44:08;;;;;;;659.40;602.33;;;12.80;83.60;;;;;;4987665;28;20038;-62
2023/09/03 01:47:00;;;;;;;624.40;573.15;;;12.80;83.70;;;;;;4973576;28;20050;-62
2023/09/03 01:49:36;;;;;;;624.10;572.40;;;12.80;83.60;;;;;;4970584;28;20465;-62
2023/09/03 01:52:39;;;;;;;670.90;612.55;;;12.70;83.70;;;;;;4986663;28;20151;-61
2023/09/03 01:55:10;;;;;;;615.78;564.70;;;12.70;83.90;;;;;;4988957;28;20320;-62
2023/09/03 01:57:41;;;;;;;633.53;580.88;;;12.70;83.90;;;;;;4972044;28;20035;-62
2023/09/03 02:00:18;;;;;;;661.63;605.78;;;12.70;83.80;;;;;;4988160;28;20082;-62
2023/09/03 02:02:47;;;;;;;649.50;594.45;;;12.60;83.80;;;;;;4969542;28;20371;-62
2023/09/03 02:05:14;;;;;;;658.80;602.53;;;12.50;83.90;;;;;;4987061;28;20049;-62
2023/09/03 02:07:40;;;;;;;624.30;571.42;;;12.50;83.90;;;;;;4971802;28;20061;-62
2023/09/03 02:10:06;;;;;;;674.22;616.78;;;12.50;83.80;;;;;;4987704;28;20498;-62
2023/09/03 02:12:32;;;;;;;621.35;572.03;;;12.50;83.80;;;;;;4986610;28;20038;-62
2023/09/03 02:14:58;;;;;;;642.05;588.00;;;12.50;83.80;;;;;;4987395;28;20244;-62
2023/09/03 02:17:24;;;;;;;675.22;617.47;;;12.50;83.90;;;;;;4970103;28;20046;-62
2023/09/03 02:19:51;;;;;;;623.63;570.78;;;12.40;83.90;;;;;;4988512;28;20042;-62
2023/09/03 02:22:18;;;;;;;633.03;579.55;;;12.30;83.80;;;;;;4986855;28;20117;-62
2023/09/03 02:24:44;;;;;;;679.85;623.75;;;12.30;83.80;;;;;;4988393;28;20624;-62
2023/09/03 02:27:10;;;;;;;640.05;587.63;;;12.30;84.00;;;;;;4972182;28;20500;-61
2023/09/03 02:29:37;;;;;;;644.20;591.47;;;12.20;84.00;;;;;;4987391;28;20088;-62
2023/09/03 02:32:03;;;;;;;615.30;567.08;;;12.30;84.00;;;;;;4987001;28;20094;-61
2023/09/03 02:34:28;;;;;;;635.08;582.70;;;12.20;84.00;;;;;;4987833;28;20504;-62
2023/09/03 02:36:54;;;;;;;625.88;576.33;;;12.20;83.90;;;;;;4972073;28;20051;-62
2023/09/03 02:39:20;;;;;;;652.95;598.85;;;12.20;84.10;;;;;;4987115;28;20157;-62
2023/09/03 02:41:45;;;;;;;612.60;560.92;;;12.20;84.30;;;;;;4971497;28;20042;-62
2023/09/03 02:44:11;;;;;;;633.70;579.97;;;12.20;84.40;;;;;;4987309;28;20062;-62
2023/09/03 02:46:37;;;;;;;621.05;570.63;;;12.20;84.60;;;;;;4970238;28;20572;-62
2023/09/03 02:49:02;;;;;;;660.65;606.45;;;12.20;84.80;;;;;;4987997;28;20038;-62
2023/09/03 02:51:28;;;;;;;642.53;588.67;;;12.20;84.80;;;;;;5001526;28;20047;-62
2023/09/03 02:53:55;;;;;;;648.05;591.80;;;12.20;85.10;;;;;;4987244;28;20062;-62
2023/09/03 02:56:22;;;;;;;649.53;593.42;;;12.20;85.20;;;;;;4975999;28;20092;-62
2023/09/03 02:58:48;;;;;;;659.58;603.72;;;12.20;85.20;;;;;;4984230;28;20038;-62
2023/09/03 03:01:16;;;;;;;659.97;603.30;;;12.20;85.00;;;;;;4996265;28;20101;-62
2023/09/03 03:03:43;;;;;;;650.45;592.97;;;12.20;85.00;;;;;;4987297;28;20053;-62
2023/09/03 03:06:10;;;;;;;640.03;585.13;;;12.20;85.10;;;;;;4982735;28;20387;-62
2023/09/03 03:08:36;;;;;;;664.15;607.28;;;12.20;85.00;;;;;;4980887;28;20042;-62
2023/09/03 03:11:13;;;;;;;648.38;594.30;;;12.20;85.10;;;;;;4987727;28;20065;-62
2023/09/03 03:13:39;;;;;;;642.70;588.15;;;12.10;85.00;;;;;;4986184;28;20042;-62
2023/09/03 03:16:11;;;;;;;599.85;550.92;;;12.10;85.10;;;;;;4990477;28;20050;-62
2023/09/03 03:18:39;;;;;;;670.58;613.15;;;12.10;85.10;;;;;;4950732;28;20038;-63
2023/09/03 03:21:05;;;;;;;576.20;529.17;;;12.10;85.20;;;;;;4990517;28;20038;-62
2023/09/03 03:23:33;;;;;;;667.70;610.85;;;12.00;85.30;;;;;;4990507;28;20050;-62
2023/09/03 03:25:59;;;;;;;655.17;599.97;;;12.00;85.50;;;;;;4990893;28;20132;-62
2023/09/03 03:28:25;;;;;;;649.65;595.10;;;12.00;85.70;;;;;;4973970;28;20532;-62
2023/09/03 03:30:50;;;;;;;659.63;604.10;;;12.10;85.80;;;;;;4991347;28;20409;-62
2023/09/03 03:33:16;;;;;;;672.92;613.55;;;12.10;85.70;;;;;;4989933;28;20478;-62
2023/09/03 03:35:42;;;;;;;645.92;590.03;;;12.10;85.70;;;;;;4990850;28;20065;-62
2023/09/03 03:38:07;;;;;;;630.65;576.72;;;12.20;85.70;;;;;;4973915;28;20042;-62
2023/09/03 03:40:33;;;;;;;649.35;593.80;;;12.20;85.90;;;;;;4989962;28;20049;-62
2023/09/03 03:42:59;;;;;;;652.92;595.85;;;12.20;86.00;;;;;;4990252;28;20056;-62
2023/09/03 03:45:24;;;;;;;646.50;592.78;;;12.30;86.10;;;;;;4990494;28;20121;-62
2023/09/03 03:47:50;;;;;;;638.83;585.40;;;12.30;85.90;;;;;;4957317;28;20117;-62
2023/09/03 03:50:16;;;;;;;654.70;599.70;;;12.30;85.80;;;;;;4992819;28;20374;-62
2023/09/03 03:52:41;;;;;;;656.90;599.58;;;12.30;85.70;;;;;;4989187;28;20117;-62
2023/09/03 03:55:07;;;;;;;642.90;588.75;;;12.30;85.50;;;;;;4990348;28;20050;-62
2023/09/03 03:57:33;;;;;;;653.45;598.90;;;12.40;85.40;;;;;;4990509;28;20116;-62
2023/09/03 03:59:59;;;;;;;664.63;606.08;;;12.30;85.30;;;;;;4999237;28;20038;-62
2023/09/03 04:02:24;;;;;;;668.22;609.30;;;12.30;85.30;;;;;;4997369;28;20104;-62
2023/09/03 04:04:53;;;;;;;630.10;577.60;;;12.30;85.20;;;;;;4990496;28;20410;-62
2023/09/03 04:07:19;;;;;;;639.42;585.88;;;12.20;85.20;;;;;;4974483;28;20441;-64
2023/09/03 04:09:45;;;;;;;609.53;560.13;;;12.20;85.10;;;;;;4990501;28;20046;-62
2023/09/03 04:12:11;;;;;;;600.67;551.13;;;12.20;85.20;;;;;;4972105;28;20042;-62
2023/09/03 04:14:37;;;;;;;657.38;600.03;;;12.20;85.20;;;;;;4990975;28;20309;-62
2023/09/03 04:17:04;;;;;;;655.15;599.92;;;12.20;85.20;;;;;;4980748;28;20113;-62
2023/09/03 04:19:29;;;;;;;629.28;577.03;;;12.20;85.20;;;;;;5006344;28;20053;-62
2023/09/03 04:21:55;;;;;;;701.50;638.38;;;12.30;85.30;;;;;;4986339;28;20097;-62
2023/09/03 04:24:21;;;;;;;641.10;583.75;;;12.30;85.30;;;;;;4987027;28;20058;-62
2023/09/03 04:26:46;;;;;;;650.50;594.85;;;12.30;85.40;;;;;;4975142;28;20634;-62
2023/09/03 04:29:13;;;;;;;639.60;583.60;;;12.30;85.40;;;;;;4983766;28;20047;-62
2023/09/03 04:31:40;;;;;;;668.90;611.92;;;12.30;85.30;;;;;;4989158;28;20478;-62
2023/09/03 04:34:06;;;;;;;682.92;623.88;;;12.40;85.20;;;;;;4990192;28;20307;-62
2023/09/03 04:36:33;;;;;;;610.28;558.13;;;12.30;85.00;;;;;;4990027;28;20042;-62
2023/09/03 04:38:59;;;;;;;600.03;550.88;;;12.30;84.70;;;;;;4973480;28;20052;-62
2023/09/03 04:41:25;;;;;;;548.88;505.40;;;12.20;84.30;;;;;;4990239;28;20042;-62
2023/09/03 04:44:06;;;;;;;536.92;494.25;;;12.10;83.90;;;;;;4971527;28;20374;-62
2023/09/03 04:46:32;;;;;;;561.72;519.53;;;11.90;83.70;;;;;;4981302;28;20604;-62
2023/09/03 04:48:58;;;;;;;464.60;431.60;;;11.80;83.50;;;;;;4984413;28;20547;-62
2023/09/03 04:51:24;;;;;;;519.25;480.08;;;11.70;83.40;;;;;;4990873;28;20042;-62
2023/09/03 04:53:49;;;;;;;530.30;490.95;;;11.60;83.40;;;;;;4989728;28;20393;-62
2023/09/03 04:56:15;;;;;;;517.33;478.92;;;11.50;83.30;;;;;;4989428;28;20050;-62
2023/09/03 04:58:41;;;;;;;505.17;466.65;;;11.40;83.30;;;;;;4973597;28;20042;-62
2023/09/03 05:01:17;;;;;;;523.83;483.83;;;11.30;83.20;;;;;;4990266;28;20050;-62
2023/09/03 05:03:43;;;;;;;464.25;429.95;;;11.30;83.30;;;;;;4990084;28;20035;-62
2023/09/03 05:06:19;;;;;;;502.63;464.80;;;11.10;83.10;;;;;;4990384;28;20069;-62
2023/09/03 05:08:48;;;;;;;381.67;352.60;;;11.10;83.00;;;;;;4981354;28;20978;-62
2023/09/03 05:11:13;;;;;;;471.48;435.90;;;11.00;82.80;;;;;;4990962;28;20042;-62
2023/09/03 05:13:39;;;;;;;469.17;434.17;;;10.90;82.80;;;;;;4989692;28;20497;-62
2023/09/03 05:16:05;;;;;;;429.20;397.58;;;10.90;82.90;;;;;;4990404;28;20085;-62
2023/09/03 05:18:34;;;;;;;458.05;423.77;;;10.80;82.80;;;;;;4973523;28;20367;-62
2023/09/03 05:21:09;;;;;;;424.67;392.80;;;10.80;82.80;;;;;;4989819;28;20125;-62
2023/09/03 05:23:36;;;;;;;445.17;411.67;;;10.80;82.90;;;;;;4988046;28;20125;-62
2023/09/03 05:26:02;;;;;;;556.63;511.20;;;10.80;83.00;;;;;;4990371;28;20038;-62
2023/09/03 05:28:27;;;;;;;500.08;462.45;;;10.80;83.10;;;;;;4988733;28;20042;-62
2023/09/03 05:30:53;;;;;;;474.95;438.67;;;10.90;83.00;;;;;;4973970;28;20048;-62
2023/09/03 05:33:19;;;;;;;461.15;425.92;;;10.90;83.20;;;;;;4988621;28;20129;-63
2023/09/03 05:35:45;;;;;;;464.02;428.65;;;10.90;83.10;;;;;;4989605;28;20097;-62
2023/09/03 05:38:11;;;;;;;488.85;453.13;;;10.90;83.10;;;;;;4973431;28;20042;-62
2023/09/03 05:40:36;;;;;;;477.50;441.13;;;10.90;83.00;;;;;;4989704;28;20072;-62
2023/09/03 05:43:02;;;;;;;481.05;444.92;;;10.90;82.90;;;;;;4988271;28;20046;-62
2023/09/03 05:45:28;;;;;;;474.17;438.25;;;11.00;83.00;;;;;;4987193;28;20053;-62
2023/09/03 05:47:54;;;;;;;480.98;445.25;;;11.00;83.10;;;;;;4954108;28;20047;-62
2023/09/03 05:50:19;;;;;;;473.73;439.08;;;11.10;83.10;;;;;;4982871;28;20046;-62
2023/09/03 05:52:45;;;;;;;578.75;533.85;;;11.10;83.10;;;;;;4988541;28;20042;-62
2023/09/03 05:55:11;;;;;;;533.42;491.30;;;11.30;83.80;;;;;;4989334;28;20038;-62
2023/09/03 05:57:37;;;;;;;568.50;523.10;;;11.40;84.10;;;;;;4970318;28;20092;-62
2023/09/03 06:00:05;;;;;;;619.30;568.70;;;11.50;84.30;;;;;;4932290;28;20054;-62
2023/09/03 06:02:33;;;;;;;638.25;587.22;;;11.70;84.50;;;;;;4983204;28;20039;-62
2023/09/03 06:04:58;;;;;;;596.25;545.92;;;11.80;84.70;;;;;;4988833;28;20041;-63
2023/09/03 06:07:24;;;;;;;646.42;591.83;;;11.90;84.70;;;;;;4972175;28;20038;-62
2023/09/03 06:09:50;;;;;;;676.17;618.00;;;12.00;84.60;;;;;;4971089;28;20046;-62
2023/09/03 06:12:16;;;;;;;644.40;590.42;;;12.20;84.80;;;;;;4987134;28;20142;-62
2023/09/03 06:14:41;;;;;;;656.78;598.42;;;12.20;85.00;;;;;;4978691;28;20054;-62
2023/09/03 06:17:07;;;;;;;673.45;613.72;;;12.30;85.00;;;;;;4972319;28;20422;-62
2023/09/03 06:19:33;;;;;;;663.70;606.80;;;12.50;85.00;;;;;;4988911;28;20042;-62
2023/09/03 06:21:59;;;;;;;684.40;621.45;;;12.50;85.00;;;;;;4987559;28;20405;-62
2023/09/03 06:24:24;;;;;;;653.88;595.47;;;12.50;85.10;;;;;;4978583;28;21390;-62
2023/09/03 06:26:50;;;;;;;662.90;602.90;;;12.70;85.00;;;;;;4970773;28;20139;-62
2023/09/03 06:29:16;;;;;;;695.20;629.22;;;12.70;85.10;;;;;;4983075;28;20045;-62
2023/09/03 06:31:41;;;;;;;700.53;634.97;;;12.80;85.00;;;;;;4966787;28;20059;-62
2023/09/03 06:34:07;;;;;;;648.70;589.72;;;12.90;84.90;;;;;;4981742;28;20057;-62
2023/09/03 06:36:33;;;;;;;618.95;565.70;;;13.00;84.80;;;;;;4936150;28;20043;-62
2023/09/03 06:38:59;;;;;;;643.03;585.33;;;13.00;84.70;;;;;;4982020;28;20057;-63
2023/09/03 06:41:24;;;;;;;687.70;622.75;;;13.00;84.50;;;;;;4986167;28;20042;-62
2023/09/03 06:43:50;;;;;;;665.33;603.47;;;13.10;84.50;;;;;;4981762;28;20049;-62
2023/09/03 06:46:16;;;;;;;636.20;579.90;;;13.10;84.40;;;;;;4973385;28;20563;-62
2023/09/03 06:48:42;;;;;;;607.53;553.10;;;13.10;84.40;;;;;;4980371;28;20054;-63
2023/09/03 06:51:09;;;;;;;620.38;564.65;;;13.10;84.40;;;;;;4985171;28;20046;-62
2023/09/03 06:53:35;;;;;;;601.35;546.45;;;13.20;84.40;;;;;;4985029;28;20058;-62
2023/09/03 06:56:01;;;;;;;658.85;598.28;;;13.30;84.40;;;;;;4986424;28;20049;-62
2023/09/03 06:58:27;;;;;;;617.78;562.92;;;13.30;84.50;;;;;;4971152;28;20089;-63
2023/09/03 07:00:53;;;;;;;631.33;575.28;;;13.40;84.50;;;;;;4997556;28;20041;-62
2023/09/03 07:03:18;;;;;;;652.20;594.08;;;13.50;84.60;;;;;;4986175;28;20148;-62
2023/09/03 07:05:44;;;;;;;661.67;597.72;;;13.60;84.50;;;;;;4987169;28;20046;-62
2023/09/03 07:08:10;;;;;;;675.55;608.15;;;13.70;84.40;;;;;;4971123;28;20104;-62
2023/09/03 07:10:36;;;;;;;688.63;623.33;;;13.90;84.40;;;;;;4986960;28;20081;-62
2023/09/03 07:13:02;;;;;;;624.92;570.28;;;13.90;84.40;;;;;;4986780;28;20042;-62
2023/09/03 07:15:28;;;;;;;647.85;591.17;;;14.00;84.20;;;;;;4985314;28;20108;-62
2023/09/03 07:17:54;;;;;;;644.20;588.17;;;14.20;84.10;;;;;;4980472;28;20042;-62
2023/09/03 07:20:20;;;;;;;685.20;623.55;;;14.30;84.00;;;;;;4987101;28;20050;-62
2023/09/03 07:22:46;;;;;;;653.97;596.10;;;14.40;83.90;;;;;;4985833;28;20109;-62
2023/09/03 07:25:11;;;;;;;647.17;588.13;;;14.60;83.90;;;;;;4987590;28;20045;-62
2023/09/03 07:27:43;;;;;;;667.00;606.03;;;14.70;83.70;;;;;;4974089;28;20077;-62
2023/09/03 07:30:09;;;;;;;653.08;595.63;;;14.80;83.60;;;;;;4995204;28;20101;-62
2023/09/03 07:32:38;;;;;;;729.13;663.20;;;14.90;83.60;;;;;;4985318;28;20049;-62
2023/09/03 07:35:07;;;;;;;701.03;639.90;;;14.90;83.60;;;;;;4985174;28;20073;-62
2023/09/03 07:37:33;;;;;;;719.22;655.78;;;15.00;83.40;;;;;;4970792;28;20046;-62
2023/09/03 07:39:59;;;;;;;709.60;645.92;;;15.00;83.00;;;;;;4986088;28;20061;-62
2023/09/03 07:42:25;;;;;;;713.67;649.20;;;15.10;82.90;;;;;;4984219;28;20555;-62
2023/09/03 07:44:51;;;;;;;695.22;633.22;;;15.20;83.00;;;;;;4984193;28;20129;-62
2023/09/03 07:47:16;;;;;;;734.28;668.92;;;15.30;82.90;;;;;;4969942;28;20046;-62
2023/09/03 07:49:42;;;;;;;773.40;704.05;;;15.30;82.80;;;;;;4993564;28;20499;-62
2023/09/03 07:52:08;;;;;;;762.90;695.78;;;15.40;82.30;;;;;;4985595;28;20050;-62
2023/09/03 07:54:34;;;;;;;774.28;706.90;;;15.40;81.90;;;;;;4969260;28;20577;-62
2023/09/03 07:57:00;;;;;;;814.67;740.58;;;15.50;81.60;;;;;;4971975;28;20049;-62
2023/09/03 07:59:26;;;;;;;783.85;715.95;;;15.60;81.70;;;;;;4987956;28;20041;-62
2023/09/03 08:01:51;;;;;;;749.50;684.35;;;15.60;81.70;;;;;;4994098;28;20088;-62
2023/09/03 08:04:18;;;;;;;760.60;694.45;;;15.60;81.80;;;;;;4985100;28;20042;-62
2023/09/03 08:06:43;;;;;;;751.92;683.28;;;15.80;81.90;;;;;;4969467;28;20084;-62
2023/09/03 08:09:09;;;;;;;782.92;713.40;;;15.80;81.80;;;;;;4984783;28;20484;-62
2023/09/03 08:11:36;;;;;;;777.55;709.47;;;15.80;81.50;;;;;;4986673;28;20073;-62
2023/09/03 08:14:02;;;;;;;786.15;717.85;;;15.80;81.40;;;;;;4984878;28;20150;-62
2023/09/03 08:16:29;;;;;;;818.60;745.70;;;15.90;81.50;;;;;;4973955;28;20533;-63
2023/09/03 08:18:54;;;;;;;784.47;713.80;;;16.00;81.20;;;;;;4983745;28;20034;-62
2023/09/03 08:21:20;;;;;;;848.25;771.83;;;16.00;81.00;;;;;;4986590;28;20528;-62
2023/09/03 08:23:46;;;;;;;776.75;709.40;;;16.10;81.00;;;;;;4985023;28;20052;-62
2023/09/03 08:26:12;;;;;;;796.17;724.72;;;16.10;80.80;;;;;;4976448;28;20523;-62
2023/09/03 08:28:38;;;;;;;842.45;767.28;;;16.20;80.80;;;;;;4978226;28;20288;-62
2023/09/03 08:31:03;;;;;;;804.28;733.50;;;16.20;80.50;;;;;;4984776;28;20061;-63
2023/09/03 08:33:29;;;;;;;832.25;755.92;;;16.40;80.30;;;;;;4966813;28;20053;-62
2023/09/03 08:35:55;;;;;;;826.03;750.17;;;16.40;80.10;;;;;;4983840;28;20362;-62
2023/09/03 08:38:20;;;;;;;803.75;733.65;;;16.40;79.80;;;;;;4952150;28;20041;-62
2023/09/03 08:40:46;;;;;;;807.85;735.20;;;16.50;79.70;;;;;;4985298;28;20260;-62
2023/09/03 08:43:14;;;;;;;826.13;751.38;;;16.50;79.70;;;;;;4983328;28;20053;-62
2023/09/03 08:45:51;;;;;;;840.78;767.00;;;16.50;79.70;;;;;;4984785;28;20098;-62
2023/09/03 08:48:17;;;;;;;806.78;737.65;;;16.60;79.30;;;;;;4950830;28;20489;-62
2023/09/03 08:50:44;;;;;;;838.53;762.55;;;16.70;79.50;;;;;;4985438;28;20473;-62
2023/09/03 08:53:11;;;;;;;863.38;782.58;;;16.70;79.10;;;;;;4984865;28;20054;-63
2023/09/03 08:55:39;;;;;;;842.30;768.67;;;16.80;78.50;;;;;;4965436;28;20060;-62
2023/09/03 08:58:05;;;;;;;861.92;781.83;;;16.90;78.40;;;;;;4967151;28;20483;-62
2023/09/03 09:00:32;;;;;;;867.03;789.17;;;16.90;78.40;;;;;;4987862;28;20489;-62
2023/09/03 09:03:05;;;;;;;867.00;789.58;;;17.00;78.40;;;;;;4982348;28;20521;-62
2023/09/03 09:05:32;;;;;;;900.47;816.65;;;17.00;78.40;;;;;;4985370;28;20042;-62
2023/09/03 09:08:04;;;;;;;865.55;783.63;;;17.10;78.50;;;;;;4968477;28;20473;-63
2023/09/03 09:10:37;;;;;;;779.47;710.15;;;17.20;78.20;;;;;;4984800;28;20035;-63
2023/09/03 09:13:04;;;;;;;865.83;784.45;;;17.20;77.80;;;;;;4963965;28;20034;-63
2023/09/03 09:15:29;;;;;;;817.63;745.67;;;17.20;77.40;;;;;;4984871;28;20038;-62
2023/09/03 09:17:55;;;;;;;848.47;768.47;;;17.20;77.60;;;;;;4968836;28;20046;-62
2023/09/03 09:20:21;;;;;;;846.63;768.72;;;17.30;77.50;;;;;;4983551;28;20046;-62
2023/09/03 09:22:51;;;;;;;802.03;733.30;;;17.40;77.60;;;;;;4982816;28;20607;-62
2023/09/03 09:25:24;;;;;;;888.88;805.42;;;17.40;77.60;;;;;;4984043;28;20089;-62
2023/09/03 09:27:52;;;;;;;856.22;776.72;;;17.50;77.80;;;;;;4979623;28;20121;-62
2023/09/03 09:30:19;;;;;;;947.17;847.92;;;17.50;77.60;;;;;;4967152;28;20046;-62
2023/09/03 09:32:46;;;;;;;843.60;763.75;;;17.60;77.10;;;;;;4980878;28;20046;-62
2023/09/03 09:35:25;;;;;;;883.92;797.08;;;17.60;77.00;;;;;;4983920;28;20069;-62
2023/09/03 09:37:51;;;;;;;884.38;793.55;;;17.60;75.80;;;;;;4945871;28;20055;-62
2023/09/03 09:40:26;;;;;;;883.10;795.17;;;17.70;75.80;;;;;;4967480;28;20509;-62
2023/09/03 09:42:55;;;;;;;895.38;805.38;;;17.80;76.30;;;;;;4949621;28;20477;-62
2023/09/03 09:45:21;;;;;;;862.80;779.95;;;17.80;76.10;;;;;;4983594;28;20513;-62
2023/09/03 09:47:47;;;;;;;850.05;769.88;;;18.00;76.20;;;;;;4970170;28;20046;-62
2023/09/03 09:50:12;;;;;;;880.80;795.75;;;18.00;76.00;;;;;;4987850;28;20134;-62
2023/09/03 09:52:40;;;;;;;951.13;849.28;;;18.10;76.00;;;;;;4985671;28;20125;-62
2023/09/03 09:55:06;;;;;;;904.08;812.85;;;18.10;75.80;;;;;;4974345;28;20638;-62
2023/09/03 09:57:32;;;;;;;962.75;857.58;;;18.20;75.20;;;;;;4969764;28;20343;-62
2023/09/03 10:00:04;;;;;;;948.08;852.65;;;18.20;75.70;;;;;;4988859;28;20485;-62
2023/09/03 10:02:30;;;;;;;896.65;805.35;;;18.30;75.10;;;;;;4985708;28;20074;-62
2023/09/03 10:04:56;;;;;;;906.35;814.47;;;18.30;75.50;;;;;;4977092;28;20450;-62
2023/09/03 10:07:22;;;;;;;890.67;802.95;;;18.30;75.20;;;;;;4970000;28;20112;-62
2023/09/03 10:09:48;;;;;;;944.53;842.97;;;18.40;75.50;;;;;;4976966;28;20049;-62
2023/09/03 10:12:14;;;;;;;888.90;801.67;;;18.50;74.70;;;;;;4990847;23;20038;-91
2023/09/03 10:14:40;;;;;;;942.35;842.17;;;18.60;74.60;;;;;;4973460;28;20425;-90
2023/09/03 10:17:07;;;;;;;917.90;825.55;;;18.60;74.90;;;;;;4972584;28;20081;-94
2023/09/03 10:19:50;;;;;;;885.22;794.33;;;18.70;74.50;;;;;;4980752;28;20038;-93
2023/09/03 10:22:19;;;;;;;913.58;815.47;;;18.70;72.90;;;;;;4972647;28;20077;-89
2023/09/03 10:24:58;;;;;;;938.35;830.35;;;18.70;73.50;;;;;;4997496;28;20052;-96
2023/09/03 10:27:30;;;;;;;873.72;786.00;;;18.70;73.30;;;;;;4982386;28;20034;-94
2023/09/03 10:29:58;;;;;;;911.08;818.85;;;18.70;73.20;;;;;;5016503;28;20084;-96
2023/09/03 10:32:26;;;;;;;942.88;844.58;;;18.80;73.60;;;;;;4998664;28;20101;-93
2023/09/03 10:34:52;;;;;;;918.88;816.92;;;18.90;73.30;;;;;;4980648;28;20057;-91
2023/09/03 10:37:18;;;;;;;923.83;825.78;;;18.90;72.20;;;;;;4967624;28;20042;-92
2023/09/03 10:39:45;;;;;;;943.50;846.63;;;18.90;72.50;;;;;;4983421;28;20038;-95
2023/09/03 10:42:27;;;;;;;958.63;845.53;;;19.00;72.10;;;;;;4978581;28;20048;-93
2023/09/03 10:45:00;;;;;;;931.03;834.83;;;19.00;71.70;;;;;;4979416;28;20077;-94
2023/09/03 10:47:26;;;;;;;910.83;812.20;;;19.00;71.40;;;;;;4986859;28;20037;-95
2023/09/03 10:49:54;;;;;;;912.13;818.33;;;19.00;72.20;;;;;;5000411;28;20054;-95
2023/09/03 10:52:30;;;;;;;928.10;831.45;;;19.10;72.20;;;;;;5017305;28;20493;-92
2023/09/03 10:55:14;;;;;;;913.42;824.85;;;19.10;69.00;;;;;;5003251;28;20463;-96
2023/09/03 10:57:45;;;;;;;925.10;827.78;;;19.10;70.10;;;;;;4981067;28;20444;-92
2023/09/03 11:00:13;;;;;;;931.95;842.30;;;19.20;70.70;;;;;;4978771;28;20089;-93
2023/09/03 11:02:40;;;;;;;962.80;864.88;;;19.20;69.70;;;;;;5007792;28;20054;-94
2023/09/03 11:05:14;;;;;;;1025.10;839.75;;;19.20;69.70;;;;;;4969730;28;20053;-91
2023/09/03 11:07:42;;;;;;;917.58;821.47;;;19.20;69.40;;;;;;4978774;28;20049;-92
2023/09/03 11:10:20;;;;;;;910.05;811.33;;;19.30;69.90;;;;;;4992066;28;20394;-94
2023/09/03 11:12:48;;;;;;;910.05;815.83;;;19.30;70.20;;;;;;4993260;28;20477;-92
2023/09/03 11:15:14;;;;;;;970.78;838.80;;;19.40;69.80;;;;;;4992711;28;20054;-94
2023/09/03 11:17:57;;;;;;;914.80;828.88;;;19.40;69.80;;;;;;4954928;28;20038;-94
2023/09/03 11:20:36;;;;;;;932.33;838.33;;;19.40;70.10;;;;;;4973050;28;20038;-95
2023/09/03 11:23:03;;;;;;;933.53;835.80;;;19.40;70.30;;;;;;4972008;28;20045;-95
2023/09/03 11:25:37;;;;;;;952.40;854.60;;;19.50;70.60;;;;;;5013713;28;20058;-94
2023/09/03 11:28:03;;;;;;;974.53;873.60;;;19.50;70.30;;;;;;4981358;28;20050;-92
2023/09/03 11:30:30;;;;;;;929.38;833.45;;;19.50;70.60;;;;;;5011353;28;20037;-92
2023/09/03 11:32:57;;;;;;;942.45;827.97;;;19.60;70.40;;;;;;4957065;28;20126;-92
2023/09/03 11:35:24;;;;;;;956.88;838.65;;;19.70;70.70;;;;;;4993680;28;20493;-94
2023/09/03 11:37:51;;;;;;;923.15;832.10;;;19.70;70.50;;;;;;4949488;28;20638;-92
2023/09/03 11:40:17;;;;;;;918.40;825.85;;;19.80;70.60;;;;;;4963748;28;20133;-94
2023/09/03 11:42:50;;;;;;;934.10;838.72;;;19.80;69.90;;;;;;4974457;28;20049;-94
2023/09/03 11:45:16;;;;;;;1120.20;892.35;;;19.90;70.00;;;;;;4978582;28;20061;-94
2023/09/03 11:47:50;;;;;;;968.08;867.95;;;19.90;70.10;;;;;;4962018;28;20038;-92
2023/09/03 11:50:17;;;;;;;960.78;859.25;;;20.00;69.10;;;;;;4976965;28;20500;-90
2023/09/03 11:52:56;;;;;;;929.92;833.60;;;20.00;69.20;;;;;;4995577;28;20145;-91
2023/09/03 11:55:29;;;;;;;928.70;832.20;;;20.00;67.50;;;;;;5004848;28;20050;-94
2023/09/03 11:57:58;;;;;;;954.90;855.92;;;20.10;68.20;;;;;;4994704;28;20519;-93
2023/09/03 12:00:24;;;;;;;1011.45;839.97;;;20.10;68.70;;;;;;4996755;28;20508;-90
2023/09/03 12:02:51;;;;;;;1108.45;872.17;;;20.20;69.10;;;;;;5009540;28;20058;-94
2023/09/03 12:05:18;;;;;;;999.33;833.90;;;20.30;69.30;;;;;;4963075;28;20529;-91
2023/09/03 12:07:43;;;;;;;906.13;817.90;;;20.30;69.30;;;;;;4979100;28;20527;-92
2023/09/03 12:10:09;;;;;;;926.72;832.85;;;20.40;69.10;;;;;;4973802;28;20042;-91
2023/09/03 12:12:35;;;;;;;934.03;839.28;;;20.40;69.10;;;;;;4987633;28;20050;-95